createdAt,value
2023-06-07T00:01:18.673Z,14.52
2023-06-07T00:06:22.409Z,14.55
2023-06-07T00:11:25.305Z,14.61
2023-06-07T00:16:28.538Z,14.64
2023-06-07T00:21:31.618Z,14.67
2023-06-07T00:26:34.615Z,14.62
2023-06-07T00:31:38.126Z,14.59
2023-06-07T00:36:41.297Z,14.56
2023-06-07T00:41:44.405Z,14.47
2023-06-07T00:46:47.581Z,14.35
2023-06-07T00:51:51.533Z,14.22
2023-06-07T00:56:54.677Z,14.10
2023-06-07T01:01:58.948Z,13.92
2023-06-07T01:07:05.588Z,13.76
2023-06-07T01:12:16.181Z,13.56
2023-06-07T01:17:25.703Z,13.38
2023-06-07T01:22:34.083Z,13.21
2023-06-07T01:27:41.328Z,13.06
2023-06-07T01:32:45.482Z,12.86
2023-06-07T01:37:49.787Z,12.69
2023-06-07T01:42:55.201Z,12.57
2023-06-07T01:47:58.687Z,12.43
2023-06-07T01:53:01.688Z,12.34
2023-06-07T01:58:37.714Z,12.33
2023-06-07T02:03:46.712Z,12.40
2023-06-07T02:08:56.194Z,12.37
2023-06-07T02:14:00.488Z,12.26
2023-06-07T02:19:08.391Z,12.20
2023-06-07T02:24:12.369Z,12.15
2023-06-07T02:29:15.847Z,12.15
2023-06-07T02:34:18.778Z,12.25
2023-06-07T02:39:22.650Z,12.60
2023-06-07T02:44:25.732Z,13.07
2023-06-07T02:49:28.637Z,13.48
2023-06-07T02:54:31.708Z,13.85
2023-06-07T02:59:35.014Z,14.44
2023-06-07T03:04:39.694Z,14.86
2023-06-07T03:09:42.882Z,14.93
2023-06-07T03:14:46.165Z,15.07
2023-06-07T03:19:49.941Z,15.11
2023-06-07T03:24:55.390Z,15.29
2023-06-07T03:29:58.454Z,15.62
2023-06-07T03:35:01.457Z,15.96
2023-06-07T03:40:05.489Z,16.35
2023-06-07T03:45:09.471Z,16.72
2023-06-07T03:50:12.610Z,17.16
2023-06-07T03:55:16.228Z,17.59
2023-06-07T04:00:19.655Z,17.88
2023-06-07T04:05:25.807Z,18.12
2023-06-07T04:10:28.687Z,18.24
2023-06-07T04:15:31.711Z,18.40
2023-06-07T04:20:34.637Z,18.55
2023-06-07T04:25:37.573Z,18.81
2023-06-07T04:30:43.871Z,19.09
2023-06-07T04:35:47.665Z,19.16
2023-06-07T04:40:51.617Z,19.24
2023-06-07T04:45:58.254Z,19.45
2023-06-07T04:51:06.942Z,19.61
2023-06-07T04:56:11.162Z,19.91
2023-06-07T05:01:14.736Z,20.20
2023-06-07T05:06:18.678Z,20.96
2023-06-07T05:11:21.681Z,21.86
2023-06-07T05:16:25.942Z,22.44
2023-06-07T05:21:29.300Z,22.71
2023-06-07T05:26:32.266Z,22.70
2023-06-07T05:31:35.325Z,22.53
2023-06-07T05:36:38.276Z,22.77
2023-06-07T05:41:41.364Z,22.92
2023-06-07T05:46:44.292Z,23.15
2023-06-07T05:51:47.337Z,23.27
2023-06-07T05:56:53.496Z,23.42
2023-06-07T06:01:57.466Z,23.78
2023-06-07T06:07:01.880Z,24.49
2023-06-07T06:12:07.741Z,24.83
2023-06-07T06:17:13.107Z,25.28
2023-06-07T06:22:16.102Z,25.43
2023-06-07T06:27:21.990Z,25.60
2023-06-07T06:32:25.301Z,26.03
2023-06-07T06:37:28.588Z,26.39
2023-06-07T06:42:31.954Z,26.79
2023-06-07T06:47:37.419Z,27.00
2023-06-07T06:52:42.781Z,27.13
2023-06-07T06:57:45.821Z,27.16
2023-06-07T07:02:49.152Z,27.38
2023-06-07T07:07:52.419Z,27.73
2023-06-07T07:12:55.746Z,27.86
2023-06-07T07:17:58.835Z,28.17
2023-06-07T07:23:03.317Z,28.33
2023-06-07T07:28:06.620Z,28.11
2023-06-07T07:33:09.597Z,28.40
2023-06-07T07:38:17.188Z,28.65
2023-06-07T07:43:20.162Z,28.62
2023-06-07T07:48:23.384Z,28.79
2023-06-07T07:53:26.381Z,29.23
2023-06-07T07:58:29.269Z,29.53
2023-06-07T08:03:33.892Z,29.80
2023-06-07T08:08:38.581Z,29.17
2023-06-07T08:13:41.655Z,28.99
2023-06-07T08:18:46.776Z,28.98
2023-06-07T08:23:50.820Z,29.19
2023-06-07T08:28:54.001Z,29.65
2023-06-07T08:33:57.050Z,30.15
2023-06-07T08:39:00.110Z,30.08
2023-06-07T08:44:04.326Z,30.34
2023-06-07T08:49:09.570Z,30.70
2023-06-07T08:54:19.495Z,30.93
2023-06-07T08:59:28.284Z,29.97
2023-06-07T09:04:31.800Z,29.43
2023-06-07T09:09:36.662Z,29.09
2023-06-07T09:14:41.423Z,29.30
2023-06-07T09:19:44.780Z,29.62
2023-06-07T09:24:47.878Z,29.73
2023-06-07T09:29:51.071Z,29.98
2023-06-07T09:35:14.190Z,29.94
2023-06-07T09:40:20.222Z,29.56
2023-06-07T09:45:25.185Z,29.90
2023-06-07T09:50:29.523Z,30.02
2023-06-07T09:55:33.499Z,30.71
2023-06-07T10:00:44.514Z,31.35
2023-06-07T10:05:48.341Z,31.68
2023-06-07T10:10:53.777Z,31.26
2023-06-07T10:15:57.384Z,30.09
2023-06-07T10:21:14.936Z,29.26
2023-06-07T10:26:30.287Z,29.46
2023-06-07T10:31:40.984Z,29.46
2023-06-07T10:36:44.002Z,29.14
2023-06-07T10:41:47.163Z,29.00
2023-06-07T10:46:52.259Z,29.53
2023-06-07T10:52:00.538Z,29.86
2023-06-07T10:57:04.405Z,30.33
2023-06-07T11:02:25.240Z,29.87
2023-06-07T11:07:33.054Z,29.08
2023-06-07T11:12:36.777Z,29.17
2023-06-07T11:18:13.500Z,29.38
2023-06-07T11:23:29.997Z,28.92
2023-06-07T11:28:39.149Z,28.40
2023-06-07T11:33:44.397Z,28.18
2023-06-07T11:38:53.405Z,27.98
2023-06-07T11:43:57.894Z,28.18
2023-06-07T11:49:09.082Z,28.77
2023-06-07T11:54:12.419Z,29.09
2023-06-07T11:59:16.940Z,28.23
2023-06-07T12:04:22.826Z,27.35
2023-06-07T12:09:28.110Z,27.14
2023-06-07T12:14:35.327Z,27.30
2023-06-07T12:19:38.628Z,28.15
2023-06-07T12:24:42.075Z,29.35
2023-06-07T12:29:54.624Z,29.68
2023-06-07T12:35:03.806Z,29.94
2023-06-07T12:40:10.266Z,30.11
2023-06-07T12:45:14.046Z,29.40
2023-06-07T12:50:18.092Z,28.68
2023-06-07T12:55:22.533Z,28.19
2023-06-07T13:00:25.770Z,27.80
2023-06-07T13:05:30.040Z,27.62
2023-06-07T13:10:33.305Z,27.74
2023-06-07T13:15:37.499Z,28.17
2023-06-07T13:20:40.840Z,29.03
2023-06-07T13:25:44.410Z,29.36
2023-06-07T13:30:47.429Z,29.44
2023-06-07T13:35:52.009Z,30.47
2023-06-07T13:40:58.939Z,30.88
2023-06-07T13:46:05.345Z,30.81
2023-06-07T13:51:13.632Z,30.42
2023-06-07T13:56:18.119Z,30.28
2023-06-07T14:01:22.327Z,30.27
2023-06-07T14:06:28.681Z,30.57
2023-06-07T14:11:32.420Z,31.22
2023-06-07T14:16:35.813Z,30.43
2023-06-07T14:21:39.290Z,30.09
2023-06-07T14:26:42.318Z,30.55
2023-06-07T14:31:45.332Z,30.66
2023-06-07T14:36:48.308Z,30.24
2023-06-07T14:41:51.322Z,30.18
2023-06-07T14:46:54.246Z,29.95
2023-06-07T14:51:57.257Z,29.68
2023-06-07T14:57:00.185Z,29.67
2023-06-07T15:02:03.383Z,29.57
2023-06-07T15:07:07.360Z,29.02
2023-06-07T15:12:11.646Z,28.62
2023-06-07T15:17:14.566Z,27.71
2023-06-07T15:22:17.545Z,27.32
2023-06-07T15:27:20.673Z,27.02
2023-06-07T15:32:23.788Z,26.69
2023-06-07T15:37:26.908Z,26.36
2023-06-07T15:42:29.974Z,26.71
2023-06-07T15:47:33.026Z,27.49
2023-06-07T15:52:36.030Z,28.11
2023-06-07T15:57:38.882Z,28.48
2023-06-07T16:02:41.855Z,28.81
2023-06-07T16:07:44.831Z,28.92
2023-06-07T16:12:48.814Z,28.89
2023-06-07T16:17:53.650Z,28.70
2023-06-07T16:22:56.761Z,28.54
2023-06-07T16:27:59.811Z,28.21
2023-06-07T16:33:04.134Z,28.35
2023-06-07T16:38:07.405Z,28.24
2023-06-07T16:43:10.414Z,28.35
2023-06-07T16:48:13.623Z,28.08
2023-06-07T16:53:16.681Z,27.88
2023-06-07T16:58:19.788Z,27.88
2023-06-07T17:03:22.787Z,27.86
2023-06-07T17:08:25.890Z,27.81
2023-06-07T17:13:28.834Z,27.87
2023-06-07T17:18:31.888Z,28.03
2023-06-07T17:23:34.978Z,28.01
2023-06-07T17:28:38.121Z,27.90
2023-06-07T17:33:43.011Z,27.66
2023-06-07T17:38:49.698Z,27.49
2023-06-07T17:43:52.988Z,27.30
2023-06-07T17:48:56.165Z,27.15
2023-06-07T17:54:02.391Z,26.81
2023-06-07T17:59:05.503Z,26.72
2023-06-07T18:04:11.436Z,26.51
2023-06-07T18:09:14.564Z,26.16
2023-06-07T18:14:18.666Z,25.63
2023-06-07T18:19:21.867Z,25.32
2023-06-07T18:24:25.659Z,24.95
2023-06-07T18:29:31.010Z,24.67
2023-06-07T18:34:35.300Z,24.31
2023-06-07T18:39:38.611Z,23.98
2023-06-07T18:44:43.845Z,23.70
2023-06-07T18:49:49.728Z,23.42
2023-06-07T18:54:53.501Z,23.12
2023-06-07T18:59:56.494Z,22.81
2023-06-07T19:04:59.844Z,22.54
2023-06-07T19:10:03.682Z,22.30
2023-06-07T19:15:11.111Z,22.08
2023-06-07T19:20:14.783Z,21.89
2023-06-07T19:25:18.247Z,21.68
2023-06-07T19:30:24.535Z,21.46
2023-06-07T19:35:29.875Z,21.28
2023-06-07T19:40:33.498Z,21.12
2023-06-07T19:45:42.757Z,21.01
2023-06-07T19:50:47.077Z,20.83
2023-06-07T19:55:55.439Z,20.65
2023-06-07T20:00:59.189Z,20.48
2023-06-07T20:06:03.326Z,20.28
2023-06-07T20:11:06.534Z,20.13
2023-06-07T20:16:12.653Z,20.03
2023-06-07T20:21:16.137Z,19.85
2023-06-07T20:26:19.194Z,19.67
2023-06-07T20:31:22.698Z,19.48
2023-06-07T20:36:27.364Z,19.31
2023-06-07T20:41:30.425Z,19.12
2023-06-07T20:46:33.982Z,18.98
2023-06-07T20:51:38.505Z,18.81
2023-06-07T20:56:41.646Z,18.63
2023-06-07T21:01:44.924Z,18.52
2023-06-07T21:06:48.274Z,18.39
2023-06-07T21:11:51.550Z,18.23
2023-06-07T21:16:54.758Z,18.08
2023-06-07T21:21:57.988Z,17.96
2023-06-07T21:27:01.463Z,17.84
2023-06-07T21:32:05.330Z,17.67
2023-06-07T21:37:14.667Z,17.57
2023-06-07T21:42:20.835Z,17.42
2023-06-07T21:47:23.965Z,17.19
2023-06-07T21:52:28.496Z,16.97
2023-06-07T21:57:32.477Z,16.78
2023-06-07T22:02:36.025Z,16.65
2023-06-07T22:07:40.243Z,16.54
2023-06-07T22:12:43.524Z,16.50
2023-06-07T22:17:48.995Z,16.50
2023-06-07T22:22:54.634Z,16.49
2023-06-07T22:27:59.235Z,16.42
2023-06-07T22:33:05.987Z,16.28
2023-06-07T22:38:13.599Z,16.22
2023-06-07T22:43:17.194Z,16.24
2023-06-07T22:48:21.561Z,16.32
2023-06-07T22:53:25.326Z,16.36
2023-06-07T22:58:28.360Z,16.23
2023-06-07T23:03:32.027Z,16.06
2023-06-07T23:08:35.261Z,15.93
2023-06-07T23:13:38.392Z,15.77
2023-06-07T23:18:41.921Z,15.65
2023-06-07T23:23:50.892Z,15.55
2023-06-07T23:28:54.098Z,15.40
2023-06-07T23:33:57.080Z,15.24
2023-06-07T23:39:00.173Z,15.19
2023-06-07T23:44:03.341Z,15.07
2023-06-07T23:49:07.007Z,15.06
2023-06-07T23:54:12.981Z,15.12
2023-06-07T23:59:16.348Z,15.19
